createdAt,value
2018-05-03T00:00:10.448Z,975.3
2018-05-03T00:01:11.787Z,975.3
2018-05-03T00:02:13.134Z,975.2
2018-05-03T00:03:14.547Z,975
2018-05-03T00:04:15.897Z,975.3
2018-05-03T00:05:17.202Z,975.2
2018-05-03T00:06:18.494Z,975.3
2018-05-03T00:07:19.794Z,975.3
2018-05-03T00:08:21.175Z,975.3
2018-05-03T00:09:22.490Z,975.2
2018-05-03T00:10:23.790Z,975.2
2018-05-03T00:11:25.107Z,975.3
2018-05-03T00:12:26.430Z,975.3
2018-05-03T00:13:27.774Z,975.3
2018-05-03T00:14:29.078Z,975.3
2018-05-03T00:15:30.522Z,975.3
2018-05-03T00:16:31.896Z,975.3
2018-05-03T00:17:33.429Z,975.3
2018-05-03T00:18:34.807Z,975.3
2018-05-03T00:19:36.128Z,975.3
2018-05-03T00:20:37.735Z,975.4
2018-05-03T00:21:39.035Z,975.4
2018-05-03T00:22:40.430Z,975.4
2018-05-03T00:23:41.840Z,975.4
2018-05-03T00:24:43.167Z,975.4
2018-05-03T00:25:44.493Z,975.3
2018-05-03T00:26:45.874Z,975.4
2018-05-03T00:27:47.892Z,975.3
2018-05-03T00:28:49.262Z,975.4
2018-05-03T00:29:50.625Z,975.1
2018-05-03T00:30:51.970Z,975.4
2018-05-03T00:31:53.286Z,975.4
2018-05-03T00:32:54.611Z,975.4
2018-05-03T00:33:55.980Z,975.4
2018-05-03T00:34:57.305Z,975.4
2018-05-03T00:35:58.618Z,975.5
2018-05-03T00:36:59.927Z,975.5
2018-05-03T00:38:01.267Z,975.4
2018-05-03T00:39:05.647Z,975.5
2018-05-03T00:40:07.008Z,975.5
2018-05-03T00:41:08.318Z,975.5
2018-05-03T00:42:09.654Z,975.5
2018-05-03T00:43:10.972Z,975.6
2018-05-03T00:44:12.386Z,975.5
2018-05-03T00:45:13.711Z,975.5
2018-05-03T00:46:15.032Z,975.5
2018-05-03T00:47:16.330Z,975.5
2018-05-03T00:48:17.651Z,975.3
2018-05-03T00:49:19.010Z,975.6
2018-05-03T00:50:20.327Z,975.6
2018-05-03T00:51:21.651Z,975.6
2018-05-03T00:52:22.998Z,975.6
2018-05-03T00:53:24.333Z,975.6
2018-05-03T00:54:25.726Z,975.6
2018-05-03T00:55:27.043Z,975.6
2018-05-03T00:56:28.363Z,975.5
2018-05-03T00:57:29.681Z,975.5
2018-05-03T00:58:31.050Z,975.5
2018-05-03T00:59:32.440Z,975.5
2018-05-03T01:00:33.799Z,975.5
2018-05-03T01:01:35.127Z,975.6
2018-05-03T01:02:36.445Z,975.5
2018-05-03T01:03:37.772Z,975.6
2018-05-03T01:04:39.125Z,975.6
2018-05-03T01:05:40.462Z,975.6
2018-05-03T01:06:41.827Z,975.6
2018-05-03T01:07:43.243Z,975.6
2018-05-03T01:08:47.555Z,975.6
2018-05-03T01:09:48.959Z,975.6
2018-05-03T01:10:50.263Z,975.6
2018-05-03T01:11:51.610Z,975.6
2018-05-03T01:12:52.927Z,975.6
2018-05-03T01:13:54.248Z,975.6
2018-05-03T01:14:55.611Z,975.7
2018-05-03T01:15:56.934Z,975.7
2018-05-03T01:17:00.688Z,975.5
2018-05-03T01:18:02.037Z,975.7
2018-05-03T01:19:03.392Z,975.7
2018-05-03T01:20:04.807Z,975.5
2018-05-03T01:21:06.184Z,975.8
2018-05-03T01:22:10.777Z,975.5
2018-05-03T01:23:12.378Z,975.8
2018-05-03T01:24:13.700Z,975.8
2018-05-03T01:25:15.485Z,975.7
2018-05-03T01:26:16.790Z,975.7
2018-05-03T01:27:18.141Z,975.8
2018-05-03T01:28:19.511Z,975.8
2018-05-03T01:29:20.886Z,975.8
2018-05-03T01:30:22.244Z,975.8
2018-05-03T01:31:23.573Z,975.8
2018-05-03T01:32:24.897Z,975.8
2018-05-03T01:33:26.226Z,975.9
2018-05-03T01:34:27.574Z,975.9
2018-05-03T01:35:29.123Z,975.9
2018-05-03T01:36:30.539Z,975.9
2018-05-03T01:37:31.919Z,975.9
2018-05-03T01:38:33.269Z,975.7
2018-05-03T01:39:34.615Z,976
2018-05-03T01:40:36.001Z,976
2018-05-03T01:41:45.363Z,976
2018-05-03T01:42:46.671Z,976
2018-05-03T01:43:48.052Z,976
2018-05-03T01:44:49.372Z,976
2018-05-03T01:45:50.726Z,976
2018-05-03T01:46:52.073Z,976.1
2018-05-03T01:47:53.418Z,976.1
2018-05-03T01:48:54.778Z,976
2018-05-03T01:49:56.104Z,976
2018-05-03T01:50:57.506Z,976
2018-05-03T01:51:58.859Z,975.8
2018-05-03T01:53:00.176Z,976
2018-05-03T01:54:01.514Z,976
2018-05-03T01:55:02.897Z,975.9
2018-05-03T01:56:04.465Z,976
2018-05-03T01:57:05.815Z,975.7
2018-05-03T01:58:07.136Z,976
2018-05-03T01:59:08.470Z,976
2018-05-03T02:00:09.843Z,976
2018-05-03T02:01:11.249Z,976
2018-05-03T02:02:12.593Z,976.1
2018-05-03T02:03:13.928Z,976
2018-05-03T02:04:15.239Z,976
2018-05-03T02:05:16.742Z,976
2018-05-03T02:06:18.394Z,976
2018-05-03T02:07:19.823Z,976
2018-05-03T02:08:21.178Z,976
2018-05-03T02:09:22.548Z,975.8
2018-05-03T02:10:23.862Z,976
2018-05-03T02:11:25.232Z,976
2018-05-03T02:12:26.537Z,976
2018-05-03T02:13:27.853Z,975.8
2018-05-03T02:14:29.170Z,976
2018-05-03T02:15:30.498Z,975.9
2018-05-03T02:16:31.921Z,975.9
2018-05-03T02:17:33.245Z,975.9
2018-05-03T02:18:34.593Z,975.9
2018-05-03T02:19:35.914Z,975.9
2018-05-03T02:20:37.246Z,975.7
2018-05-03T02:21:46.164Z,976
2018-05-03T02:22:47.497Z,976
2018-05-03T02:23:48.830Z,975.9
2018-05-03T02:24:50.153Z,976
2018-05-03T02:25:51.486Z,975.9
2018-05-03T02:26:52.931Z,976
2018-05-03T02:27:54.278Z,975.9
2018-05-03T02:28:55.624Z,975.7
2018-05-03T02:29:56.927Z,976
2018-05-03T02:30:58.248Z,975.9
2018-05-03T02:31:59.615Z,976
2018-05-03T02:33:00.973Z,976
2018-05-03T02:34:02.322Z,976
2018-05-03T02:35:03.699Z,976
2018-05-03T02:36:05.059Z,976.1
2018-05-03T02:37:06.422Z,976
2018-05-03T02:38:07.763Z,976
2018-05-03T02:39:09.083Z,976
2018-05-03T02:40:10.429Z,976
2018-05-03T02:41:11.758Z,976.1
2018-05-03T02:42:13.438Z,976.1
2018-05-03T02:43:19.000Z,976.1
2018-05-03T02:44:20.340Z,976.1
2018-05-03T02:45:21.666Z,976.1
2018-05-03T02:46:24.136Z,976.1
2018-05-03T02:47:25.493Z,976.1
2018-05-03T02:48:26.831Z,976.1
2018-05-03T02:49:28.159Z,976
2018-05-03T02:50:29.542Z,976
2018-05-03T02:51:32.958Z,976
2018-05-03T02:52:34.473Z,975.8
2018-05-03T02:53:35.786Z,976
2018-05-03T02:54:37.117Z,976
2018-05-03T02:55:38.459Z,976
2018-05-03T02:56:39.810Z,976.1
2018-05-03T02:57:41.177Z,976
2018-05-03T02:58:42.501Z,976.1
2018-05-03T02:59:43.829Z,976.1
2018-05-03T03:00:45.146Z,976.1
2018-05-03T03:01:46.492Z,976.2
2018-05-03T03:02:47.930Z,975.9
2018-05-03T03:03:49.257Z,976.2
2018-05-03T03:04:50.588Z,976.1
2018-05-03T03:05:54.287Z,976.2
2018-05-03T03:06:55.971Z,976.2
2018-05-03T03:07:57.346Z,976.2
2018-05-03T03:08:58.683Z,976.2
2018-05-03T03:10:00.048Z,976.2
2018-05-03T03:11:01.443Z,976
2018-05-03T03:12:02.772Z,976.3
2018-05-03T03:13:04.403Z,976.2
2018-05-03T03:14:05.746Z,976.3
2018-05-03T03:15:07.139Z,976.2
2018-05-03T03:16:08.474Z,976.2
2018-05-03T03:17:09.867Z,976.3
2018-05-03T03:18:11.278Z,976.3
2018-05-03T03:19:12.604Z,976.2
2018-05-03T03:20:13.950Z,976.2
2018-05-03T03:21:15.275Z,976.2
2018-05-03T03:22:16.619Z,976.2
2018-05-03T03:23:17.997Z,976.2
2018-05-03T03:24:19.347Z,976.2
2018-05-03T03:25:20.687Z,976
2018-05-03T03:26:22.051Z,976.3
2018-05-03T03:27:23.535Z,976.3
2018-05-03T03:28:24.930Z,976.3
2018-05-03T03:29:26.270Z,976.3
2018-05-03T03:30:27.667Z,976.3
2018-05-03T03:31:29.015Z,976.3
2018-05-03T03:32:30.335Z,976.3
2018-05-03T03:33:31.735Z,976.2
2018-05-03T03:34:33.067Z,976.3
2018-05-03T03:35:34.431Z,976.3
2018-05-03T03:36:35.773Z,976.2
2018-05-03T03:37:37.099Z,976.3
2018-05-03T03:38:38.479Z,976.2
2018-05-03T03:39:39.825Z,976.2
2018-05-03T03:40:41.216Z,976.2
2018-05-03T03:41:42.586Z,976
2018-05-03T03:42:43.917Z,976.2
2018-05-03T03:43:45.315Z,976.2
2018-05-03T03:44:46.662Z,976.2
2018-05-03T03:45:48.003Z,976
2018-05-03T03:46:49.315Z,976.2
2018-05-03T03:47:50.645Z,976.2
2018-05-03T03:48:52.122Z,976
2018-05-03T03:49:53.467Z,976.1
2018-05-03T03:50:54.855Z,976.2
2018-05-03T03:51:56.180Z,976.2
2018-05-03T03:52:57.503Z,976.2
2018-05-03T03:53:59.581Z,976.2
2018-05-03T03:55:00.922Z,976.3
2018-05-03T03:56:02.381Z,976.2
2018-05-03T03:57:03.740Z,976.2
2018-05-03T03:58:05.088Z,976.3
2018-05-03T03:59:06.477Z,976.3
2018-05-03T04:00:07.806Z,976.3
2018-05-03T04:01:09.165Z,976.3
2018-05-03T04:02:10.514Z,976.3
2018-05-03T04:03:14.791Z,976.4
2018-05-03T04:04:16.194Z,976.4
2018-05-03T04:05:17.508Z,976.3
2018-05-03T04:06:18.840Z,976.4
2018-05-03T04:07:20.170Z,976.4
2018-05-03T04:08:21.510Z,976.4
2018-05-03T04:09:22.908Z,976.4
2018-05-03T04:10:24.519Z,976.4
2018-05-03T04:11:25.874Z,976.4
2018-05-03T04:12:29.815Z,976.5
2018-05-03T04:13:31.173Z,976.6
2018-05-03T04:14:32.743Z,976.5
2018-05-03T04:15:34.098Z,976.5
2018-05-03T04:16:35.458Z,976.6
2018-05-03T04:17:36.807Z,976.6
2018-05-03T04:18:38.180Z,976.6
2018-05-03T04:19:39.556Z,976.5
2018-05-03T04:20:40.997Z,976.6
2018-05-03T04:21:42.407Z,976.5
2018-05-03T04:22:43.751Z,976.6
2018-05-03T04:23:45.109Z,976.6
2018-05-03T04:24:46.478Z,976.6
2018-05-03T04:25:47.802Z,976.6
2018-05-03T04:26:49.156Z,976.7
2018-05-03T04:27:50.479Z,976.7
2018-05-03T04:28:51.858Z,976.7
2018-05-03T04:29:53.238Z,976.8
2018-05-03T04:30:54.617Z,976.8
2018-05-03T04:31:55.951Z,977
2018-05-03T04:32:57.281Z,977.1
2018-05-03T04:33:58.685Z,977.1
2018-05-03T04:35:00.125Z,976.9
2018-05-03T04:36:01.544Z,977
2018-05-03T04:37:02.863Z,977
2018-05-03T04:38:04.252Z,977
2018-05-03T04:39:06.982Z,977
2018-05-03T04:40:08.415Z,977.1
2018-05-03T04:41:09.809Z,977.1
2018-05-03T04:42:11.137Z,977.1
2018-05-03T04:43:12.655Z,976.9
2018-05-03T04:44:14.155Z,977.2
2018-05-03T04:45:16.009Z,977.1
2018-05-03T04:46:17.409Z,977.1
2018-05-03T04:47:18.790Z,977.1
2018-05-03T04:48:20.167Z,977.1
2018-05-03T04:49:21.569Z,977.2
2018-05-03T04:50:22.972Z,977.1
2018-05-03T04:51:24.278Z,977.2
2018-05-03T04:52:25.658Z,977.2
2018-05-03T04:53:27.010Z,977.2
2018-05-03T04:54:28.452Z,977.1
2018-05-03T04:55:29.991Z,977.3
2018-05-03T04:56:31.322Z,977.3
2018-05-03T04:57:42.326Z,977.3
2018-05-03T04:58:43.663Z,977.3
2018-05-03T04:59:44.969Z,977.4
2018-05-03T05:00:46.365Z,977.3
2018-05-03T05:01:47.947Z,977.3
2018-05-03T05:02:49.304Z,977.4
2018-05-03T05:03:50.684Z,977.4
2018-05-03T05:05:00.243Z,977.4
2018-05-03T05:06:01.917Z,977.3
2018-05-03T05:07:03.424Z,977.5
2018-05-03T05:08:05.947Z,977.4
2018-05-03T05:09:14.743Z,977.5
2018-05-03T05:10:16.072Z,977.5
2018-05-03T05:11:17.466Z,977.6
2018-05-03T05:12:18.811Z,977.6
2018-05-03T05:13:20.179Z,977.6
2018-05-03T05:14:21.586Z,977.6
2018-05-03T05:15:22.928Z,977.7
2018-05-03T05:16:24.343Z,977.5
2018-05-03T05:17:25.712Z,977.7
2018-05-03T05:18:27.068Z,977.7
2018-05-03T05:19:28.505Z,977.5
2018-05-03T05:20:30.099Z,977.5
2018-05-03T05:21:31.613Z,977.7
2018-05-03T05:22:33.019Z,977.7
2018-05-03T05:23:34.428Z,977.7
2018-05-03T05:24:35.937Z,977.7
2018-05-03T05:25:37.379Z,977.7
2018-05-03T05:26:38.791Z,977.7
2018-05-03T05:27:42.301Z,977.8
2018-05-03T05:28:46.596Z,977.7
2018-05-03T05:29:47.997Z,977.8
2018-05-03T05:30:49.508Z,977.6
2018-05-03T05:31:50.920Z,977.7
2018-05-03T05:32:52.370Z,977.4
2018-05-03T05:33:53.719Z,977.8
2018-05-03T05:34:55.068Z,977.8
2018-05-03T05:35:56.436Z,977.9
2018-05-03T05:36:57.848Z,977.8
2018-05-03T05:38:02.312Z,977.9
2018-05-03T05:39:03.691Z,977.9
2018-05-03T05:40:05.129Z,977.9
2018-05-03T05:41:06.621Z,977.7
2018-05-03T05:42:09.135Z,977.9
2018-05-03T05:43:10.521Z,978
2018-05-03T05:44:12.040Z,977.8
2018-05-03T05:45:13.536Z,977.9
2018-05-03T05:46:14.950Z,977.9
2018-05-03T05:47:16.538Z,977.9
2018-05-03T05:48:17.926Z,977.9
2018-05-03T05:49:19.269Z,977.9
2018-05-03T05:50:20.607Z,977.9
2018-05-03T05:51:22.080Z,978
2018-05-03T05:52:23.403Z,978
2018-05-03T05:53:24.764Z,978
2018-05-03T05:54:26.108Z,978.1
2018-05-03T05:55:27.451Z,978.1
2018-05-03T05:56:28.826Z,977.9
2018-05-03T05:57:30.454Z,978.2
2018-05-03T05:58:33.658Z,978.2
2018-05-03T05:59:35.291Z,978.2
2018-05-03T06:00:36.684Z,978
2018-05-03T06:01:38.068Z,978.2
2018-05-03T06:02:39.453Z,978
2018-05-03T06:03:41.100Z,978.2
2018-05-03T06:04:42.647Z,978.1
2018-05-03T06:05:44.015Z,978.2
2018-05-03T06:06:45.355Z,978.2
2018-05-03T06:07:46.788Z,978.2
2018-05-03T06:08:48.176Z,978.1
2018-05-03T06:09:49.551Z,978.1
2018-05-03T06:10:50.944Z,978.1
2018-05-03T06:11:52.380Z,978.1
2018-05-03T06:12:53.779Z,978.2
2018-05-03T06:13:55.158Z,978.2
2018-05-03T06:14:56.539Z,978.2
2018-05-03T06:15:57.875Z,978.1
2018-05-03T06:16:59.233Z,978
2018-05-03T06:18:00.622Z,978.2
2018-05-03T06:19:02.063Z,978.2
2018-05-03T06:20:03.428Z,978.2
2018-05-03T06:21:04.810Z,978.2
2018-05-03T06:22:06.378Z,978.2
2018-05-03T06:23:07.828Z,978.2
2018-05-03T06:24:09.475Z,978.2
2018-05-03T06:25:10.897Z,978.2
2018-05-03T06:26:12.355Z,978.2
2018-05-03T06:27:13.722Z,978.2
2018-05-03T06:28:15.124Z,978.2
2018-05-03T06:29:16.520Z,978.2
2018-05-03T06:30:18.005Z,978.3
2018-05-03T06:31:19.359Z,978.3
2018-05-03T06:32:20.741Z,978.3
2018-05-03T06:33:22.208Z,978.3
2018-05-03T06:34:23.583Z,978.3
2018-05-03T06:35:24.929Z,978.3
2018-05-03T06:36:26.295Z,978.3
2018-05-03T06:37:27.650Z,978.4
2018-05-03T06:38:29.141Z,978.4
2018-05-03T06:39:30.571Z,978.4
2018-05-03T06:40:33.828Z,978.5
2018-05-03T06:41:35.344Z,978.5
2018-05-03T06:42:36.659Z,978.5
2018-05-03T06:43:38.090Z,978.5
2018-05-03T06:44:39.528Z,978.5
2018-05-03T06:45:40.907Z,978.6
2018-05-03T06:46:42.292Z,978.6
2018-05-03T06:47:43.654Z,978.6
2018-05-03T06:48:45.144Z,978.5
2018-05-03T06:49:46.511Z,978.5
2018-05-03T06:50:47.861Z,978.7
2018-05-03T06:51:49.181Z,978.8
2018-05-03T06:52:50.550Z,978.9
2018-05-03T06:53:52.019Z,978.9
2018-05-03T06:54:53.375Z,979
2018-05-03T06:55:54.851Z,979
2018-05-03T06:56:59.339Z,978.9
2018-05-03T06:58:00.745Z,979.2
2018-05-03T06:59:04.672Z,979.2
2018-05-03T07:00:08.286Z,979.1
2018-05-03T07:01:09.718Z,979.2
2018-05-03T07:02:11.340Z,979.2
2018-05-03T07:03:12.772Z,979.2
2018-05-03T07:04:14.276Z,979.2
2018-05-03T07:05:15.549Z,979.1
2018-05-03T07:06:16.957Z,979
2018-05-03T07:07:18.334Z,979.1
2018-05-03T07:08:19.703Z,978.9
2018-05-03T07:09:21.131Z,979.2
2018-05-03T07:10:22.575Z,979.3
2018-05-03T07:11:23.971Z,979.3
2018-05-03T07:12:25.302Z,979.3
2018-05-03T07:13:26.642Z,979.2
2018-05-03T07:14:28.157Z,979.2
2018-05-03T07:15:31.127Z,979.2
2018-05-03T07:16:32.596Z,979.3
2018-05-03T07:17:34.015Z,979.3
2018-05-03T07:18:35.393Z,979.3
2018-05-03T07:19:36.789Z,979.3
2018-05-03T07:20:38.146Z,979.5
2018-05-03T07:21:39.564Z,979.6
2018-05-03T07:22:40.970Z,979.5
2018-05-03T07:23:42.427Z,979.3
2018-05-03T07:24:43.880Z,979.5
2018-05-03T07:25:45.291Z,979.5
2018-05-03T07:26:46.954Z,979.4
2018-05-03T07:27:48.330Z,979.6
2018-05-03T07:28:49.840Z,979.6
2018-05-03T07:29:51.316Z,979.6
2018-05-03T07:30:53.020Z,979.6
2018-05-03T07:31:54.561Z,979.6
2018-05-03T07:32:55.921Z,979.6
2018-05-03T07:33:57.292Z,979.6
2018-05-03T07:34:58.703Z,979.5
2018-05-03T07:36:00.198Z,979.6
2018-05-03T07:37:05.420Z,979.7
2018-05-03T07:38:09.533Z,979.7
2018-05-03T07:39:10.927Z,979.7
2018-05-03T07:40:12.367Z,979.7
2018-05-03T07:41:13.747Z,979.8
2018-05-03T07:42:15.078Z,979.7
2018-05-03T07:43:16.481Z,979.7
2018-05-03T07:44:17.861Z,979.7
2018-05-03T07:45:19.262Z,979.6
2018-05-03T07:46:20.650Z,979.8
2018-05-03T07:47:22.083Z,979.8
2018-05-03T07:48:23.601Z,979.9
2018-05-03T07:49:24.976Z,979.9
2018-05-03T07:50:26.407Z,980
2018-05-03T07:51:27.740Z,980
2018-05-03T07:52:29.224Z,980.1
2018-05-03T07:53:30.632Z,980.3
2018-05-03T07:54:31.988Z,980.4
2018-05-03T07:55:33.522Z,980.2
2018-05-03T07:56:34.893Z,980
2018-05-03T07:57:36.284Z,979.9
2018-05-03T07:58:37.754Z,980
2018-05-03T07:59:39.148Z,979.7
2018-05-03T08:00:40.606Z,979.9
2018-05-03T08:01:42.010Z,979.7
2018-05-03T08:02:43.525Z,979.8
2018-05-03T08:03:47.513Z,979.9
2018-05-03T08:04:48.934Z,979.9
2018-05-03T08:05:50.435Z,979.9
2018-05-03T08:06:51.840Z,979.9
2018-05-03T08:07:53.292Z,979.9
2018-05-03T08:08:54.654Z,979.9
2018-05-03T08:09:56.006Z,979.9
2018-05-03T08:10:57.516Z,979.9
2018-05-03T08:11:58.891Z,979.8
2018-05-03T08:13:00.244Z,980
2018-05-03T08:14:01.644Z,980
2018-05-03T08:15:03.141Z,980
2018-05-03T08:16:04.604Z,980
2018-05-03T08:17:06.664Z,980
2018-05-03T08:18:08.104Z,980
2018-05-03T08:19:09.519Z,980.1
2018-05-03T08:20:10.930Z,980.1
2018-05-03T08:21:12.663Z,980.2
2018-05-03T08:22:15.210Z,980.2
2018-05-03T08:23:16.535Z,980.2
2018-05-03T08:24:17.930Z,980
2018-05-03T08:25:19.287Z,980.3
2018-05-03T08:26:20.731Z,980.4
2018-05-03T08:27:22.058Z,980.2
2018-05-03T08:28:23.561Z,980.2
2018-05-03T08:29:27.116Z,980.1
2018-05-03T08:30:28.580Z,980.1
2018-05-03T08:31:31.662Z,980.1
2018-05-03T08:32:33.168Z,980.1
2018-05-03T08:33:36.189Z,980.1
2018-05-03T08:34:37.613Z,980.1
2018-05-03T08:35:38.995Z,980.1
2018-05-03T08:36:40.428Z,980.1
2018-05-03T08:37:41.820Z,980.1
2018-05-03T08:38:44.436Z,980.1
2018-05-03T08:39:45.817Z,980.1
2018-05-03T08:40:47.193Z,980.1
2018-05-03T08:41:48.627Z,980
2018-05-03T08:42:49.982Z,980
2018-05-03T08:43:51.319Z,980.1
2018-05-03T08:44:52.768Z,980.2
2018-05-03T08:45:54.135Z,980.2
2018-05-03T08:46:55.543Z,980.3
2018-05-03T08:47:58.334Z,980.3
2018-05-03T08:48:59.693Z,980.3
2018-05-03T08:50:01.121Z,980.3
2018-05-03T08:51:03.999Z,980.3
2018-05-03T08:52:06.425Z,980.5
2018-05-03T08:53:07.778Z,980.5
2018-05-03T08:54:09.158Z,980.6
2018-05-03T08:55:10.820Z,980.3
2018-05-03T08:56:12.377Z,980.5
2018-05-03T08:57:13.957Z,980.5
2018-05-03T08:58:16.385Z,980.4
2018-05-03T08:59:17.845Z,980.4
2018-05-03T09:00:19.222Z,980.3
2018-05-03T09:01:21.074Z,980.4
2018-05-03T09:02:22.652Z,980.4
2018-05-03T09:03:24.168Z,980.4
2018-05-03T09:04:25.660Z,980.5
2018-05-03T09:05:27.294Z,980.4
2018-05-03T09:06:28.793Z,980.4
2018-05-03T09:07:30.213Z,980.4
2018-05-03T09:08:45.651Z,980.4
2018-05-03T09:09:46.997Z,980.3
2018-05-03T09:10:48.420Z,980.4
2018-05-03T09:11:49.751Z,980.4
2018-05-03T09:12:51.161Z,980.3
2018-05-03T09:13:54.764Z,980.3
2018-05-03T09:14:56.401Z,980.4
2018-05-03T09:16:11.477Z,980.4
2018-05-03T09:17:13.487Z,980.4
2018-05-03T09:18:15.003Z,980.4
2018-05-03T09:19:19.103Z,980.4
2018-05-03T09:20:20.442Z,980.4
2018-05-03T09:21:22.452Z,980.3
2018-05-03T09:22:24.138Z,980.3
2018-05-03T09:23:30.167Z,980.3
2018-05-03T09:24:31.726Z,980.2
2018-05-03T09:25:34.050Z,980.4
2018-05-03T09:26:35.499Z,980.4
2018-05-03T09:27:37.624Z,980.2
2018-05-03T09:28:39.827Z,980.4
2018-05-03T09:29:41.796Z,980.3
2018-05-03T09:30:43.239Z,980.4
2018-05-03T09:31:44.591Z,980.4
2018-05-03T09:32:49.700Z,980.3
2018-05-03T09:33:53.362Z,980.4
2018-05-03T09:34:54.848Z,980.3
2018-05-03T09:35:56.221Z,980.4
2018-05-03T09:36:59.649Z,980.3
2018-05-03T09:38:01.023Z,980.4
2018-05-03T09:39:02.441Z,980.4
2018-05-03T09:40:04.499Z,980.3
2018-05-03T09:41:05.977Z,980.3
2018-05-03T09:42:07.573Z,980.4
2018-05-03T09:43:08.917Z,980.4
2018-05-03T09:44:10.751Z,980.4
2018-05-03T09:45:12.206Z,980.2
2018-05-03T09:46:13.571Z,980.4
2018-05-03T09:47:15.129Z,980.4
2018-05-03T09:48:16.695Z,980.4
2018-05-03T09:49:18.178Z,980.4
2018-05-03T09:50:19.697Z,980.4
2018-05-03T09:51:21.657Z,980.4
2018-05-03T09:52:23.135Z,980.5
2018-05-03T09:53:28.116Z,980.5
2018-05-03T09:54:29.915Z,980.5
2018-05-03T09:55:31.422Z,980.5
2018-05-03T09:56:33.038Z,980.5
2018-05-03T09:57:35.947Z,980.5
2018-05-03T09:58:37.894Z,980.4
2018-05-03T09:59:40.835Z,980.4
2018-05-03T10:00:42.360Z,980.4
2018-05-03T10:01:43.982Z,980.4
2018-05-03T10:02:47.270Z,980.4
2018-05-03T10:03:52.785Z,980.3
2018-05-03T10:04:57.272Z,980.5
2018-05-03T10:06:00.518Z,980.4
2018-05-03T10:07:03.117Z,980.3
2018-05-03T10:08:23.913Z,980.5
2018-05-03T10:09:39.512Z,980.4
2018-05-03T10:10:44.134Z,980.3
2018-05-03T10:11:53.312Z,980.4
2018-05-03T10:12:57.316Z,980.5
2018-05-03T10:14:14.408Z,980.5
2018-05-03T10:15:17.249Z,980.6
2018-05-03T10:16:19.794Z,980.5
2018-05-03T10:17:23.213Z,980.6
2018-05-03T10:18:25.915Z,980.6
2018-05-03T10:19:27.694Z,980.5
2018-05-03T10:20:32.741Z,980.4
2018-05-03T10:21:34.736Z,980.6
2018-05-03T10:22:36.374Z,980.4
2018-05-03T10:23:41.635Z,980.6
2018-05-03T10:24:43.482Z,980.6
2018-05-03T10:25:44.966Z,980.6
2018-05-03T10:26:46.683Z,980.6
2018-05-03T10:27:50.368Z,980.4
2018-05-03T10:28:53.152Z,980.7
2018-05-03T10:29:54.958Z,980.5
2018-05-03T10:30:56.531Z,980.5
2018-05-03T10:31:58.145Z,980.7
2018-05-03T10:33:02.287Z,980.7
2018-05-03T10:34:04.407Z,980.5
2018-05-03T10:35:20.283Z,980.7
2018-05-03T10:36:34.601Z,980.7
2018-05-03T10:37:36.200Z,980.8
2018-05-03T10:38:37.807Z,980.7
2018-05-03T10:39:40.885Z,980.7
2018-05-03T10:40:43.230Z,980.7
2018-05-03T10:41:48.278Z,980.7
2018-05-03T10:42:50.045Z,980.6
2018-05-03T10:43:53.910Z,980.7
2018-05-03T10:44:57.582Z,980.7
2018-05-03T10:46:00.699Z,980.7
2018-05-03T10:47:16.569Z,980.5
2018-05-03T10:48:24.727Z,980.8
2018-05-03T10:49:26.847Z,980.8
2018-05-03T10:50:32.331Z,980.8
2018-05-03T10:51:39.158Z,980.8
2018-05-03T10:52:41.486Z,980.8
2018-05-03T10:53:43.256Z,980.8
2018-05-03T10:54:48.554Z,980.9
2018-05-03T10:55:50.235Z,980.8
2018-05-03T10:56:53.353Z,980.9
2018-05-03T10:57:54.928Z,980.8
2018-05-03T10:58:57.207Z,980.8
2018-05-03T11:00:13.299Z,980.9
2018-05-03T11:01:18.244Z,980.9
2018-05-03T11:02:25.375Z,980.8
2018-05-03T11:03:28.932Z,980.7
2018-05-03T11:04:35.477Z,980.9
2018-05-03T11:05:37.021Z,980.9
2018-05-03T11:06:38.616Z,980.9
2018-05-03T11:07:40.447Z,980.8
2018-05-03T11:08:42.487Z,980.9
2018-05-03T11:09:47.954Z,980.7
2018-05-03T11:10:54.397Z,980.8
2018-05-03T11:12:11.324Z,980.8
2018-05-03T11:13:19.305Z,980.8
2018-05-03T11:14:21.488Z,980.8
2018-05-03T11:15:41.947Z,980.8
2018-05-03T11:16:48.078Z,980.8
2018-05-03T11:18:09.028Z,980.7
2018-05-03T11:19:11.142Z,980.7
2018-05-03T11:20:17.509Z,980.8
2018-05-03T11:21:25.309Z,980.8
2018-05-03T11:22:34.866Z,980.7
2018-05-03T11:23:36.602Z,980.8
2018-05-03T11:24:41.504Z,980.9
2018-05-03T11:25:43.969Z,980.8
2018-05-03T11:26:51.894Z,980.8
2018-05-03T11:27:55.281Z,980.8
2018-05-03T11:28:58.717Z,980.7
2018-05-03T11:30:01.559Z,980.8
2018-05-03T11:31:11.036Z,980.8
2018-05-03T11:32:18.090Z,980.8
2018-05-03T11:33:19.830Z,980.8
2018-05-03T11:34:22.415Z,980.8
2018-05-03T11:35:25.514Z,980.8
2018-05-03T11:36:27.220Z,980.8
2018-05-03T11:37:29.012Z,980.9
2018-05-03T11:38:31.344Z,980.8
2018-05-03T11:39:34.915Z,980.8
2018-05-03T11:40:36.468Z,980.8
2018-05-03T11:41:38.176Z,980.8
2018-05-03T11:42:49.958Z,980.6
2018-05-03T11:43:53.177Z,980.9
2018-05-03T11:44:57.569Z,980.7
2018-05-03T11:46:05.674Z,980.7
2018-05-03T11:47:16.568Z,980.8
2018-05-03T11:48:18.298Z,980.9
2018-05-03T11:49:19.966Z,980.9
2018-05-03T11:50:23.603Z,980.9
2018-05-03T11:51:26.149Z,980.9
2018-05-03T11:52:30.292Z,980.9
2018-05-03T11:53:32.590Z,980.9
2018-05-03T11:54:35.680Z,980.9
2018-05-03T11:55:38.988Z,980.9
2018-05-03T11:56:40.772Z,980.7
2018-05-03T11:57:42.229Z,980.9
2018-05-03T11:58:43.997Z,980.9
2018-05-03T11:59:47.626Z,980.9
2018-05-03T12:00:49.402Z,980.9
2018-05-03T12:01:51.327Z,980.7
2018-05-03T12:02:52.737Z,980.8
2018-05-03T12:03:54.504Z,980.8
2018-05-03T12:04:56.031Z,980.9
2018-05-03T12:05:57.624Z,980.9
2018-05-03T12:06:59.060Z,980.9
2018-05-03T12:08:00.800Z,980.9
2018-05-03T12:09:02.284Z,980.8
2018-05-03T12:10:06.254Z,980.7
2018-05-03T12:11:08.574Z,980.9
2018-05-03T12:12:11.325Z,980.8
2018-05-03T12:13:13.265Z,980.7
2018-05-03T12:14:14.714Z,980.9
2018-05-03T12:15:16.108Z,980.8
2018-05-03T12:16:17.657Z,980.9
2018-05-03T12:17:22.138Z,980.9
2018-05-03T12:18:24.173Z,980.9
2018-05-03T12:19:25.865Z,981
2018-05-03T12:20:27.397Z,980.9
2018-05-03T12:21:28.838Z,981
2018-05-03T12:22:30.263Z,981
2018-05-03T12:23:31.676Z,981
2018-05-03T12:24:33.234Z,981.1
2018-05-03T12:25:34.989Z,981.1
2018-05-03T12:26:36.394Z,981.1
2018-05-03T12:27:37.984Z,981.1
2018-05-03T12:28:39.478Z,981.1
2018-05-03T12:29:40.918Z,981.1
2018-05-03T12:30:42.339Z,981.1
2018-05-03T12:31:44.014Z,981.1
2018-05-03T12:32:45.938Z,981.1
2018-05-03T12:33:47.658Z,981.1
2018-05-03T12:34:49.101Z,981.1
2018-05-03T12:35:53.408Z,981.1
2018-05-03T12:36:54.981Z,981.1
2018-05-03T12:37:56.432Z,981.1
2018-05-03T12:38:57.845Z,980.8
2018-05-03T12:39:59.266Z,981
2018-05-03T12:41:00.677Z,981
2018-05-03T12:42:02.554Z,980.8
2018-05-03T12:43:04.100Z,981.1
2018-05-03T12:44:05.857Z,981.1
2018-05-03T12:45:07.393Z,981.1
2018-05-03T12:46:08.995Z,981
2018-05-03T12:47:11.146Z,981
2018-05-03T12:48:12.880Z,981
2018-05-03T12:49:14.922Z,981.1
2018-05-03T12:50:16.623Z,981.1
2018-05-03T12:51:18.042Z,981.1
2018-05-03T12:52:19.521Z,981
2018-05-03T12:53:20.957Z,981.1
2018-05-03T12:54:22.323Z,981
2018-05-03T12:55:23.706Z,981
2018-05-03T12:56:25.433Z,981
2018-05-03T12:57:26.801Z,981.1
2018-05-03T12:58:28.375Z,981.1
2018-05-03T12:59:29.756Z,981.1
2018-05-03T13:00:39.682Z,981.1
2018-05-03T13:01:41.078Z,981.1
2018-05-03T13:02:44.117Z,981.2
2018-05-03T13:03:45.562Z,981.1
2018-05-03T13:04:47.374Z,981.1
2018-05-03T13:05:48.788Z,981.1
2018-05-03T13:06:50.283Z,981.1
2018-05-03T13:07:51.717Z,981.2
2018-05-03T13:08:53.111Z,981.1
2018-05-03T13:09:54.633Z,981.1
2018-05-03T13:10:56.049Z,981.1
2018-05-03T13:11:59.899Z,981
2018-05-03T13:13:01.936Z,981
2018-05-03T13:14:03.365Z,981.2
2018-05-03T13:15:04.895Z,981.1
2018-05-03T13:16:06.429Z,981.2
2018-05-03T13:17:10.274Z,981.1
2018-05-03T13:18:11.727Z,981
2018-05-03T13:19:13.321Z,981.1
2018-05-03T13:20:16.107Z,981
2018-05-03T13:21:21.501Z,981
2018-05-03T13:22:22.885Z,981
2018-05-03T13:23:24.274Z,981
2018-05-03T13:24:25.815Z,981
2018-05-03T13:25:27.205Z,981.1
2018-05-03T13:26:28.838Z,981.1
2018-05-03T13:27:30.657Z,981.1